createdAt,value
2023-05-03T00:00:10.262Z,63.60
2023-05-03T00:02:40.084Z,63.70
2023-05-03T00:05:12.509Z,63.70
2023-05-03T00:07:40.395Z,63.60
2023-05-03T00:10:08.386Z,63.70
2023-05-03T00:12:34.955Z,63.70
2023-05-03T00:15:01.650Z,63.70
2023-05-03T00:17:28.499Z,63.60
2023-05-03T00:19:56.336Z,63.80
2023-05-03T00:22:23.338Z,63.80
2023-05-03T00:24:51.165Z,63.80
2023-05-03T00:27:19.112Z,63.80
2023-05-03T00:29:46.224Z,63.80
2023-05-03T00:32:12.907Z,63.80
2023-05-03T00:34:39.472Z,63.90
2023-05-03T00:37:06.100Z,63.90
2023-05-03T00:39:33.030Z,63.80
2023-05-03T00:42:01.779Z,63.90
2023-05-03T00:44:28.371Z,64.00
2023-05-03T00:46:56.109Z,64.10
2023-05-03T00:49:25.049Z,64.10
2023-05-03T00:51:53.635Z,64.20
2023-05-03T00:54:21.523Z,64.20
2023-05-03T00:56:51.879Z,64.20
2023-05-03T00:59:20.005Z,64.30
2023-05-03T01:01:51.393Z,64.30
2023-05-03T01:04:19.648Z,64.40
2023-05-03T01:07:13.153Z,64.40
2023-05-03T01:09:51.090Z,64.50
2023-05-03T01:12:37.365Z,64.50
2023-05-03T01:15:36.409Z,64.60
2023-05-03T01:18:13.460Z,64.70
2023-05-03T01:20:43.643Z,64.60
2023-05-03T01:23:18.696Z,64.70
2023-05-03T01:25:45.303Z,64.80
2023-05-03T01:28:11.903Z,64.80
2023-05-03T01:30:40.407Z,64.80
2023-05-03T01:33:24.867Z,64.80
2023-05-03T01:36:00.085Z,64.90
2023-05-03T01:38:29.087Z,65.00
2023-05-03T01:41:00.050Z,65.00
2023-05-03T01:43:28.539Z,65.00
2023-05-03T01:45:55.365Z,65.00
2023-05-03T01:48:22.007Z,65.10
2023-05-03T01:50:48.588Z,65.10
2023-05-03T01:53:15.226Z,65.20
2023-05-03T01:55:41.808Z,65.20
2023-05-03T01:58:08.442Z,65.20
2023-05-03T02:00:35.029Z,65.20
2023-05-03T02:03:01.649Z,65.20
2023-05-03T02:05:28.402Z,65.30
2023-05-03T02:07:55.079Z,65.30
2023-05-03T02:10:21.836Z,65.40
2023-05-03T02:12:48.467Z,65.40
2023-05-03T02:15:15.491Z,65.40
2023-05-03T02:17:43.083Z,65.40
2023-05-03T02:20:10.056Z,65.50
2023-05-03T02:22:37.162Z,65.50
2023-05-03T02:25:04.099Z,65.40
2023-05-03T02:27:30.774Z,65.40
2023-05-03T02:29:57.364Z,65.40
2023-05-03T02:32:24.084Z,65.40
2023-05-03T02:34:50.792Z,65.50
2023-05-03T02:37:17.466Z,65.60
2023-05-03T02:39:44.121Z,65.60
2023-05-03T02:42:10.688Z,65.60
2023-05-03T02:44:37.339Z,65.50
2023-05-03T02:47:04.053Z,65.60
2023-05-03T02:49:30.687Z,65.70
2023-05-03T02:51:58.015Z,65.70
2023-05-03T02:54:24.737Z,65.80
2023-05-03T02:56:51.449Z,65.80
2023-05-03T02:59:18.062Z,65.90
2023-05-03T03:01:46.621Z,65.90
2023-05-03T03:04:13.270Z,65.90
2023-05-03T03:06:39.995Z,65.90
2023-05-03T03:09:06.642Z,66.00
2023-05-03T03:11:33.601Z,66.00
2023-05-03T03:14:00.275Z,66.00
2023-05-03T03:16:27.520Z,66.00
2023-05-03T03:18:54.149Z,66.00
2023-05-03T03:21:20.883Z,66.00
2023-05-03T03:23:48.173Z,66.00
2023-05-03T03:26:14.799Z,66.10
2023-05-03T03:28:41.413Z,66.10
2023-05-03T03:31:08.315Z,66.20
2023-05-03T03:33:34.947Z,66.20
2023-05-03T03:36:01.847Z,66.20
2023-05-03T03:38:28.584Z,66.20
2023-05-03T03:40:55.382Z,66.30
2023-05-03T03:43:21.987Z,66.30
2023-05-03T03:45:48.813Z,66.30
2023-05-03T03:48:15.506Z,66.40
2023-05-03T03:50:42.373Z,66.50
2023-05-03T03:53:11.064Z,66.50
2023-05-03T03:55:37.802Z,66.60
2023-05-03T03:58:05.272Z,66.60
2023-05-03T04:00:32.124Z,66.60
2023-05-03T04:02:58.924Z,66.60
2023-05-03T04:05:25.706Z,66.60
2023-05-03T04:07:52.294Z,66.70
2023-05-03T04:10:18.982Z,66.80
2023-05-03T04:12:45.562Z,66.70
2023-05-03T04:15:13.131Z,66.80
2023-05-03T04:17:39.904Z,67.70
2023-05-03T04:20:07.433Z,66.90
2023-05-03T04:22:34.065Z,67.40
2023-05-03T04:25:03.343Z,66.90
2023-05-03T04:27:30.128Z,66.90
2023-05-03T04:29:57.208Z,67.00
2023-05-03T04:32:23.785Z,67.00
2023-05-03T04:34:53.889Z,67.00
2023-05-03T04:37:24.078Z,66.90
2023-05-03T04:39:50.867Z,66.90
2023-05-03T04:42:18.231Z,66.90
2023-05-03T04:44:44.998Z,66.80
2023-05-03T04:47:11.873Z,66.80
2023-05-03T04:49:39.883Z,66.80
2023-05-03T04:52:06.634Z,66.70
2023-05-03T04:54:33.223Z,66.70
2023-05-03T04:56:59.771Z,67.50
2023-05-03T04:59:26.413Z,66.70
2023-05-03T05:01:53.390Z,66.70
2023-05-03T05:04:20.054Z,66.80
2023-05-03T05:06:46.676Z,66.80
2023-05-03T05:09:24.690Z,66.80
2023-05-03T05:11:51.812Z,67.00
2023-05-03T05:14:18.616Z,66.90
2023-05-03T05:16:45.451Z,67.00
2023-05-03T05:19:12.993Z,67.00
2023-05-03T05:21:40.028Z,67.00
2023-05-03T05:24:06.844Z,67.00
2023-05-03T05:26:33.548Z,67.20
2023-05-03T05:29:00.249Z,67.20
2023-05-03T05:31:26.917Z,67.20
2023-05-03T05:33:53.572Z,67.20
2023-05-03T05:36:20.618Z,67.20
2023-05-03T05:38:47.277Z,67.30
2023-05-03T05:41:13.926Z,67.20
2023-05-03T05:43:40.526Z,67.10
2023-05-03T05:46:08.241Z,67.10
2023-05-03T05:48:34.852Z,67.00
2023-05-03T05:51:01.406Z,67.00
2023-05-03T05:53:28.590Z,67.00
2023-05-03T05:55:55.267Z,67.00
2023-05-03T05:58:21.890Z,66.90
2023-05-03T06:00:49.026Z,66.90
2023-05-03T06:03:16.057Z,66.90
2023-05-03T06:05:42.950Z,66.80
2023-05-03T06:08:10.508Z,66.90
2023-05-03T06:10:37.120Z,66.20
2023-05-03T06:13:03.835Z,66.00
2023-05-03T06:15:30.518Z,65.70
2023-05-03T06:17:57.304Z,65.50
2023-05-03T06:20:24.469Z,65.20
2023-05-03T06:22:51.090Z,65.10
2023-05-03T06:25:18.245Z,64.60
2023-05-03T06:27:44.994Z,64.00
2023-05-03T06:30:12.247Z,63.50
2023-05-03T06:32:40.529Z,63.30
2023-05-03T06:35:09.177Z,63.20
2023-05-03T06:37:36.430Z,62.90
2023-05-03T06:40:03.169Z,63.00
2023-05-03T06:42:30.070Z,63.00
2023-05-03T06:44:56.742Z,62.90
2023-05-03T06:47:23.322Z,62.90
2023-05-03T06:49:49.962Z,62.50
2023-05-03T06:52:16.833Z,62.20
2023-05-03T06:54:44.309Z,62.00
2023-05-03T06:57:11.027Z,62.00
2023-05-03T06:59:37.671Z,61.70
2023-05-03T07:02:04.360Z,61.70
2023-05-03T07:04:31.135Z,61.90
2023-05-03T07:06:57.790Z,61.90
2023-05-03T07:09:39.243Z,61.80
2023-05-03T07:12:09.950Z,61.80
2023-05-03T07:14:36.675Z,62.30
2023-05-03T07:17:03.292Z,61.60
2023-05-03T07:19:30.526Z,61.40
2023-05-03T07:21:57.142Z,61.00
2023-05-03T07:24:25.779Z,60.90
2023-05-03T07:26:55.901Z,60.90
2023-05-03T07:29:22.524Z,60.60
2023-05-03T07:31:50.824Z,60.30
2023-05-03T07:34:18.800Z,60.00
2023-05-03T07:36:45.447Z,60.00
2023-05-03T07:39:12.131Z,59.80
2023-05-03T07:41:38.896Z,59.20
2023-05-03T07:44:05.621Z,59.80
2023-05-03T07:46:34.997Z,58.30
2023-05-03T07:49:03.861Z,58.00
2023-05-03T07:51:34.998Z,57.40
2023-05-03T07:54:01.687Z,57.20
2023-05-03T07:56:28.789Z,57.40
2023-05-03T07:59:07.531Z,57.30
2023-05-03T08:01:35.510Z,57.30
2023-05-03T08:04:02.372Z,56.30
2023-05-03T08:06:29.337Z,56.10
2023-05-03T08:08:56.124Z,55.20
2023-05-03T08:11:22.765Z,54.60
2023-05-03T08:13:49.587Z,55.40
2023-05-03T08:16:16.544Z,55.40
2023-05-03T08:18:43.520Z,53.50
2023-05-03T08:21:12.002Z,53.20
2023-05-03T08:23:38.964Z,53.30
2023-05-03T08:26:07.598Z,52.70
2023-05-03T08:28:36.928Z,52.90
2023-05-03T08:31:04.797Z,53.00
2023-05-03T08:33:31.645Z,52.80
2023-05-03T08:35:58.371Z,52.40
2023-05-03T08:38:25.369Z,52.20
2023-05-03T08:40:54.595Z,51.60
2023-05-03T08:43:23.862Z,50.70
2023-05-03T08:45:51.375Z,49.50
2023-05-03T08:48:18.725Z,48.80
2023-05-03T08:50:45.408Z,49.60
2023-05-03T08:53:12.134Z,48.70
2023-05-03T08:55:38.880Z,49.00
2023-05-03T08:58:12.968Z,48.60
2023-05-03T09:00:44.569Z,47.90
2023-05-03T09:03:11.829Z,47.70
2023-05-03T09:05:40.435Z,47.70
2023-05-03T09:08:14.524Z,47.30
2023-05-03T09:10:42.588Z,46.80
2023-05-03T09:13:12.076Z,46.80
2023-05-03T09:15:39.065Z,46.60
2023-05-03T09:18:21.010Z,46.80
2023-05-03T09:20:52.570Z,46.10
2023-05-03T09:23:29.619Z,45.50
2023-05-03T09:25:56.898Z,45.30
2023-05-03T09:28:23.746Z,45.20
2023-05-03T09:31:03.715Z,44.30
2023-05-03T09:33:30.539Z,44.50
2023-05-03T09:35:58.996Z,43.70
2023-05-03T09:38:30.854Z,43.70
2023-05-03T09:40:58.230Z,44.50
2023-05-03T09:43:25.143Z,44.30
2023-05-03T09:45:51.828Z,43.40
2023-05-03T09:48:23.288Z,43.20
2023-05-03T09:50:50.898Z,42.20
2023-05-03T09:53:21.369Z,41.30
2023-05-03T09:55:50.737Z,41.80
2023-05-03T09:58:18.777Z,41.80
2023-05-03T10:00:52.126Z,41.20
2023-05-03T10:03:28.237Z,40.80
2023-05-03T10:05:55.817Z,40.50
2023-05-03T10:08:41.023Z,40.20
2023-05-03T10:11:17.277Z,39.90
2023-05-03T10:13:44.038Z,40.30
2023-05-03T10:16:20.862Z,40.20
2023-05-03T10:18:56.500Z,39.30
2023-05-03T10:21:38.032Z,39.60
2023-05-03T10:24:16.194Z,39.30
2023-05-03T10:26:47.406Z,39.00
2023-05-03T10:29:37.042Z,38.30
2023-05-03T10:32:05.129Z,38.40
2023-05-03T10:34:36.027Z,38.70
2023-05-03T10:37:08.161Z,38.10
2023-05-03T10:39:34.914Z,38.60
2023-05-03T10:42:08.023Z,38.80
2023-05-03T10:44:50.108Z,38.50
2023-05-03T10:47:18.179Z,37.70
2023-05-03T10:49:45.546Z,37.60
2023-05-03T10:52:40.268Z,37.60
2023-05-03T10:55:15.101Z,37.60
2023-05-03T10:57:43.794Z,38.10
2023-05-03T11:00:24.216Z,37.90
2023-05-03T11:03:23.619Z,38.00
2023-05-03T11:05:51.586Z,38.90
2023-05-03T11:08:21.087Z,37.80
2023-05-03T11:10:51.404Z,37.10
2023-05-03T11:13:18.262Z,37.50
2023-05-03T11:15:47.665Z,37.40
2023-05-03T11:18:15.144Z,37.30
2023-05-03T11:20:41.942Z,37.10
2023-05-03T11:23:09.247Z,37.30
2023-05-03T11:25:36.055Z,37.10
2023-05-03T11:28:04.260Z,37.20
2023-05-03T11:30:34.785Z,37.10
2023-05-03T11:33:02.402Z,37.40
2023-05-03T11:35:30.370Z,37.40
2023-05-03T11:37:57.296Z,37.20
2023-05-03T11:40:24.153Z,37.00
2023-05-03T11:42:53.037Z,36.50
2023-05-03T11:45:24.963Z,36.30
2023-05-03T11:47:52.403Z,36.90
2023-05-03T11:50:26.580Z,36.80
2023-05-03T11:52:53.829Z,36.70
2023-05-03T11:55:21.761Z,36.40
2023-05-03T11:57:48.394Z,36.30
2023-05-03T12:00:20.741Z,36.30
2023-05-03T12:02:51.467Z,36.30
2023-05-03T12:05:18.897Z,36.70
2023-05-03T12:07:47.605Z,36.90
2023-05-03T12:10:22.921Z,36.80
2023-05-03T12:13:00.298Z,36.40
2023-05-03T12:15:33.741Z,36.80
2023-05-03T12:18:04.636Z,36.30
2023-05-03T12:23:04.286Z,36.40
2023-05-03T12:25:34.096Z,36.40
2023-05-03T12:28:17.970Z,36.70
2023-05-03T12:30:47.066Z,36.30
2023-05-03T12:33:16.589Z,36.10
2023-05-03T12:35:47.468Z,35.50
2023-05-03T12:38:16.692Z,35.30
2023-05-03T12:40:45.320Z,35.70
2023-05-03T12:43:12.532Z,35.80
2023-05-03T12:45:40.929Z,35.80
2023-05-03T12:48:08.914Z,35.90
2023-05-03T12:50:38.889Z,35.30
2023-05-03T12:53:09.516Z,35.40
2023-05-03T12:55:43.145Z,35.20
2023-05-03T13:00:46.608Z,34.90
2023-05-03T13:03:33.389Z,34.80
2023-05-03T13:06:02.816Z,34.70
2023-05-03T13:08:36.817Z,35.00
2023-05-03T13:11:04.409Z,34.90
2023-05-03T13:13:31.698Z,34.60
2023-05-03T13:15:59.959Z,35.00
2023-05-03T13:18:26.903Z,35.10
2023-05-03T13:20:53.516Z,35.00
2023-05-03T13:23:20.141Z,34.50
2023-05-03T13:25:47.113Z,34.20
2023-05-03T13:28:13.836Z,33.60
2023-05-03T13:30:40.564Z,33.30
2023-05-03T13:33:08.221Z,33.30
2023-05-03T13:35:34.944Z,33.50
2023-05-03T13:38:01.603Z,33.20
2023-05-03T13:40:28.231Z,33.20
2023-05-03T13:42:54.836Z,33.30
2023-05-03T13:45:21.588Z,32.50
2023-05-03T13:48:10.864Z,31.90
2023-05-03T13:50:34.895Z,31.90
2023-05-03T13:53:01.851Z,32.00
2023-05-03T13:55:28.500Z,32.00
2023-05-03T13:57:55.276Z,32.20
2023-05-03T14:00:22.160Z,32.20
2023-05-03T14:02:48.930Z,32.20
2023-05-03T14:05:16.458Z,32.20
2023-05-03T14:07:43.093Z,31.70
2023-05-03T14:10:11.217Z,31.10
2023-05-03T14:12:38.199Z,30.60
2023-05-03T14:15:06.210Z,31.10
2023-05-03T14:17:33.190Z,31.20
2023-05-03T14:19:59.836Z,30.70
2023-05-03T14:22:27.452Z,30.40
2023-05-03T14:24:54.038Z,30.20
2023-05-03T14:27:21.949Z,30.00
2023-05-03T14:29:48.815Z,29.50
2023-05-03T14:32:16.170Z,29.40
2023-05-03T14:34:43.520Z,29.70
2023-05-03T14:37:10.258Z,29.80
2023-05-03T14:39:36.894Z,29.60
2023-05-03T14:42:04.019Z,29.40
2023-05-03T14:44:30.656Z,29.50
2023-05-03T14:47:00.064Z,29.30
2023-05-03T14:49:26.796Z,29.20
2023-05-03T14:51:53.458Z,29.20
2023-05-03T14:54:20.099Z,29.20
2023-05-03T14:56:46.762Z,29.30
2023-05-03T14:59:13.481Z,29.30
2023-05-03T15:01:40.160Z,29.70
2023-05-03T15:04:10.457Z,29.40
2023-05-03T15:06:39.034Z,29.30
2023-05-03T15:09:06.136Z,29.20
2023-05-03T15:11:32.783Z,29.30
2023-05-03T15:13:59.653Z,29.50
2023-05-03T15:16:26.785Z,29.80
2023-05-03T15:18:53.446Z,29.70
2023-05-03T15:21:20.214Z,29.50
2023-05-03T15:23:49.400Z,29.60
2023-05-03T15:26:16.522Z,29.40
2023-05-03T15:28:43.181Z,29.50
2023-05-03T15:31:10.125Z,29.50
2023-05-03T15:33:43.790Z,29.60
2023-05-03T15:36:16.546Z,29.60
2023-05-03T15:38:43.809Z,29.70
2023-05-03T15:41:10.829Z,30.00
2023-05-03T15:43:37.630Z,30.00
2023-05-03T15:46:05.459Z,30.10
2023-05-03T15:48:32.226Z,30.10
2023-05-03T15:50:59.234Z,30.00
2023-05-03T15:53:26.985Z,30.00
2023-05-03T15:55:57.951Z,30.20
2023-05-03T15:58:25.608Z,30.40
2023-05-03T16:00:52.304Z,30.40
2023-05-03T16:03:18.888Z,30.30
2023-05-03T16:05:46.681Z,30.40
2023-05-03T16:08:13.370Z,30.70
2023-05-03T16:10:40.339Z,30.60
2023-05-03T16:13:08.675Z,30.70
2023-05-03T16:15:35.387Z,30.60
2023-05-03T16:18:01.997Z,30.90
2023-05-03T16:20:28.584Z,30.90
2023-05-03T16:22:55.311Z,30.90
2023-05-03T16:25:22.816Z,31.10
2023-05-03T16:27:49.778Z,31.10
2023-05-03T16:30:17.907Z,31.10
2023-05-03T16:32:44.999Z,31.10
2023-05-03T16:35:11.725Z,31.30
2023-05-03T16:37:38.647Z,31.10
2023-05-03T16:40:10.234Z,31.10
2023-05-03T16:42:43.620Z,31.30
2023-05-03T16:45:13.015Z,31.70
2023-05-03T16:47:39.761Z,32.10
2023-05-03T16:50:07.896Z,32.10
2023-05-03T16:52:39.262Z,33.20
2023-05-03T16:55:07.715Z,32.10
2023-05-03T16:57:34.330Z,32.60
2023-05-03T17:00:08.211Z,32.50
2023-05-03T17:02:36.089Z,32.60
2023-05-03T17:05:07.724Z,32.90
2023-05-03T17:07:35.556Z,32.90
2023-05-03T17:10:03.578Z,33.10
2023-05-03T17:12:31.005Z,33.20
2023-05-03T17:14:57.728Z,33.40
2023-05-03T17:17:24.359Z,33.60
2023-05-03T17:19:51.021Z,33.60
2023-05-03T17:22:17.629Z,33.70
2023-05-03T17:24:44.261Z,33.90
2023-05-03T17:27:11.103Z,34.20
2023-05-03T17:29:38.185Z,34.50
2023-05-03T17:32:05.174Z,34.90
2023-05-03T17:34:32.135Z,35.00
2023-05-03T17:36:59.213Z,35.20
2023-05-03T17:39:25.953Z,35.60
2023-05-03T17:41:52.581Z,36.90
2023-05-03T17:44:19.167Z,36.00
2023-05-03T17:46:46.078Z,36.10
2023-05-03T17:49:12.761Z,36.50
2023-05-03T17:51:39.907Z,36.80
2023-05-03T17:54:06.622Z,37.00
2023-05-03T17:56:33.188Z,37.30
2023-05-03T17:58:59.741Z,37.80
2023-05-03T18:01:27.514Z,37.70
2023-05-03T18:03:54.396Z,37.80
2023-05-03T18:06:21.276Z,39.30
2023-05-03T18:08:48.325Z,38.70
2023-05-03T18:11:14.956Z,38.60
2023-05-03T18:13:41.802Z,38.80
2023-05-03T18:16:09.438Z,38.90
2023-05-03T18:18:36.117Z,39.10
2023-05-03T18:21:04.362Z,39.30
2023-05-03T18:23:32.043Z,39.20
2023-05-03T18:25:59.696Z,39.50
2023-05-03T18:28:26.420Z,39.80
2023-05-03T18:30:55.579Z,39.90
2023-05-03T18:33:22.228Z,40.10
2023-05-03T18:35:49.813Z,40.40
2023-05-03T18:38:21.603Z,40.70
2023-05-03T18:40:49.862Z,40.70
2023-05-03T18:43:16.926Z,40.80
2023-05-03T18:45:44.302Z,41.20
2023-05-03T18:48:11.952Z,41.20
2023-05-03T18:50:39.261Z,41.40
2023-05-03T18:53:06.545Z,41.30
2023-05-03T18:55:33.157Z,41.40
2023-05-03T18:58:00.581Z,41.30
2023-05-03T19:00:27.707Z,41.50
2023-05-03T19:02:54.411Z,41.70
2023-05-03T19:05:21.038Z,41.80
2023-05-03T19:07:48.340Z,42.00
2023-05-03T19:10:16.185Z,42.20
2023-05-03T19:12:44.256Z,42.40
2023-05-03T19:15:11.577Z,42.60
2023-05-03T19:17:40.508Z,42.70
2023-05-03T19:20:07.970Z,43.00
2023-05-03T19:22:34.599Z,43.00
2023-05-03T19:25:03.455Z,43.10
2023-05-03T19:27:31.436Z,43.40
2023-05-03T19:29:58.228Z,43.90
2023-05-03T19:32:25.201Z,44.00
2023-05-03T19:34:51.883Z,43.70
2023-05-03T19:37:18.533Z,43.80
2023-05-03T19:39:45.556Z,44.00
2023-05-03T19:42:12.194Z,44.00
2023-05-03T19:44:38.839Z,44.20
2023-05-03T19:47:05.517Z,44.30
2023-05-03T19:49:32.628Z,44.60
2023-05-03T19:51:59.302Z,44.60
2023-05-03T19:54:26.081Z,44.70
2023-05-03T19:56:52.783Z,44.70
2023-05-03T19:59:19.505Z,44.90
2023-05-03T20:01:46.220Z,45.20
2023-05-03T20:04:12.994Z,45.30
2023-05-03T20:06:39.828Z,45.40
2023-05-03T20:09:06.479Z,45.70
2023-05-03T20:11:33.199Z,45.90
2023-05-03T20:13:59.838Z,45.90
2023-05-03T20:16:31.284Z,46.20
2023-05-03T20:18:58.066Z,46.50
2023-05-03T20:21:24.690Z,46.70
2023-05-03T20:23:51.423Z,46.90
2023-05-03T20:26:19.053Z,47.00
2023-05-03T20:28:46.259Z,47.20
2023-05-03T20:31:12.873Z,47.40
2023-05-03T20:33:39.456Z,47.60
2023-05-03T20:36:07.198Z,47.70
2023-05-03T20:38:33.841Z,47.90
2023-05-03T20:41:00.527Z,48.10
2023-05-03T20:43:27.288Z,48.20
2023-05-03T20:45:54.273Z,48.40
2023-05-03T20:48:21.161Z,48.70
2023-05-03T20:50:49.875Z,48.90
2023-05-03T20:53:16.479Z,49.00
2023-05-03T20:55:43.130Z,49.20
2023-05-03T20:58:09.787Z,49.40
2023-05-03T21:00:36.337Z,49.70
2023-05-03T21:03:03.469Z,49.80
2023-05-03T21:05:30.257Z,50.10
2023-05-03T21:07:56.883Z,50.20
2023-05-03T21:10:23.742Z,50.40
2023-05-03T21:12:50.432Z,51.60
2023-05-03T21:15:17.189Z,50.90
2023-05-03T21:17:43.863Z,50.90
2023-05-03T21:20:11.056Z,50.90
2023-05-03T21:22:37.820Z,51.30
2023-05-03T21:25:05.735Z,51.50
2023-05-03T21:27:32.442Z,51.70
2023-05-03T21:29:59.073Z,51.90
2023-05-03T21:32:26.077Z,52.20
2023-05-03T21:34:53.726Z,52.50
2023-05-03T21:37:20.472Z,52.60
2023-05-03T21:40:00.663Z,52.70
2023-05-03T21:42:28.647Z,52.80
2023-05-03T21:44:55.729Z,53.00
2023-05-03T21:47:22.311Z,53.10
2023-05-03T21:49:48.947Z,53.30
2023-05-03T21:52:15.585Z,53.50
2023-05-03T21:54:42.583Z,53.80
2023-05-03T21:57:09.191Z,53.80
2023-05-03T21:59:35.805Z,54.00
2023-05-03T22:02:03.025Z,54.10
2023-05-03T22:04:29.717Z,54.30
2023-05-03T22:06:56.530Z,54.50
2023-05-03T22:09:24.617Z,54.60
2023-05-03T22:11:51.372Z,54.70
2023-05-03T22:14:18.083Z,54.80
2023-05-03T22:16:44.748Z,54.90
2023-05-03T22:19:11.900Z,55.00
2023-05-03T22:21:38.506Z,55.20
2023-05-03T22:24:05.508Z,55.40
2023-05-03T22:26:32.120Z,55.40
2023-05-03T22:28:58.683Z,55.50
2023-05-03T22:31:26.619Z,55.70
2023-05-03T22:33:53.480Z,55.90
2023-05-03T22:36:20.177Z,56.00
2023-05-03T22:38:47.003Z,56.10
2023-05-03T22:41:13.666Z,56.10
2023-05-03T22:43:40.253Z,56.10
2023-05-03T22:46:07.181Z,56.40
2023-05-03T22:48:34.082Z,56.40
2023-05-03T22:51:00.850Z,56.60
2023-05-03T22:53:27.673Z,56.70
2023-05-03T22:56:01.792Z,56.80
2023-05-03T22:58:28.569Z,56.90
2023-05-03T23:00:55.723Z,57.00
2023-05-03T23:03:22.853Z,57.20
2023-05-03T23:05:52.809Z,57.20
2023-05-03T23:08:20.366Z,57.30
2023-05-03T23:10:47.209Z,58.40
2023-05-03T23:13:13.827Z,57.60
2023-05-03T23:15:40.459Z,57.50
2023-05-03T23:18:07.298Z,57.60
2023-05-03T23:20:34.272Z,57.90
2023-05-03T23:23:00.957Z,57.90
2023-05-03T23:25:27.647Z,58.00
2023-05-03T23:27:54.217Z,58.10
2023-05-03T23:30:21.493Z,58.10
2023-05-03T23:32:48.804Z,58.30
2023-05-03T23:35:16.137Z,58.40
2023-05-03T23:37:42.710Z,58.50
2023-05-03T23:40:09.720Z,58.60
2023-05-03T23:42:36.549Z,58.70
2023-05-03T23:45:03.318Z,58.80
2023-05-03T23:47:29.952Z,59.10
2023-05-03T23:49:56.723Z,59.10
2023-05-03T23:52:23.379Z,59.30
2023-05-03T23:54:50.034Z,59.30
2023-05-03T23:57:16.632Z,59.50
2023-05-03T23:59:43.239Z,59.60
